sensor_id;sensor_type;location;lat;lon;timestamp;P1;durP1;ratioP1;P2;durP2;ratioP2
42598;SDS011;28225;42.714;23.860;2022-11-12T00:00:42;3.25;;;2.25;;
42598;SDS011;28225;42.714;23.860;2022-11-12T00:03:08;4.10;;;3.13;;
42598;SDS011;28225;42.714;23.860;2022-11-12T00:05:34;4.45;;;2.88;;
42598;SDS011;28225;42.714;23.860;2022-11-12T00:07:59;3.97;;;3.03;;
42598;SDS011;28225;42.714;23.860;2022-11-12T00:10:25;4.95;;;2.85;;
42598;SDS011;28225;42.714;23.860;2022-11-12T00:12:51;4.40;;;2.72;;
42598;SDS011;28225;42.714;23.860;2022-11-12T00:15:16;4.38;;;2.78;;
42598;SDS011;28225;42.714;23.860;2022-11-12T00:17:42;13.23;;;4.03;;
42598;SDS011;28225;42.714;23.860;2022-11-12T00:20:08;3.50;;;2.60;;
42598;SDS011;28225;42.714;23.860;2022-11-12T00:22:33;4.57;;;3.00;;
42598;SDS011;28225;42.714;23.860;2022-11-12T00:24:59;11.63;;;4.47;;
42598;SDS011;28225;42.714;23.860;2022-11-12T00:27:24;13.20;;;4.53;;
42598;SDS011;28225;42.714;23.860;2022-11-12T00:29:50;3.47;;;2.78;;
42598;SDS011;28225;42.714;23.860;2022-11-12T00:32:16;5.75;;;2.45;;
42598;SDS011;28225;42.714;23.860;2022-11-12T00:34:41;4.63;;;2.60;;
42598;SDS011;28225;42.714;23.860;2022-11-12T00:37:06;3.80;;;3.03;;
42598;SDS011;28225;42.714;23.860;2022-11-12T00:39:32;6.03;;;3.40;;
42598;SDS011;28225;42.714;23.860;2022-11-12T00:41:58;4.72;;;3.75;;
42598;SDS011;28225;42.714;23.860;2022-11-12T00:44:23;4.57;;;2.88;;
42598;SDS011;28225;42.714;23.860;2022-11-12T00:46:49;7.18;;;3.20;;
42598;SDS011;28225;42.714;23.860;2022-11-12T00:49:14;4.20;;;3.05;;
42598;SDS011;28225;42.714;23.860;2022-11-12T00:51:40;5.55;;;3.42;;
42598;SDS011;28225;42.714;23.860;2022-11-12T00:54:06;7.15;;;4.57;;
42598;SDS011;28225;42.714;23.860;2022-11-12T00:56:31;5.53;;;3.67;;
42598;SDS011;28225;42.714;23.860;2022-11-12T00:58:57;4.63;;;3.17;;
42598;SDS011;28225;42.714;23.860;2022-11-12T01:01:23;4.57;;;3.65;;
42598;SDS011;28225;42.714;23.860;2022-11-12T01:03:49;6.35;;;4.82;;
42598;SDS011;28225;42.714;23.860;2022-11-12T01:06:16;4.80;;;3.78;;
42598;SDS011;28225;42.714;23.860;2022-11-12T01:08:43;3.75;;;3.33;;
42598;SDS011;28225;42.714;23.860;2022-11-12T01:11:10;5.38;;;3.25;;
42598;SDS011;28225;42.714;23.860;2022-11-12T01:13:38;3.95;;;3.17;;
42598;SDS011;28225;42.714;23.860;2022-11-12T01:16:08;3.90;;;3.05;;
42598;SDS011;28225;42.714;23.860;2022-11-12T01:18:34;4.60;;;3.00;;
42598;SDS011;28225;42.714;23.860;2022-11-12T01:21:00;3.85;;;2.80;;
42598;SDS011;28225;42.714;23.860;2022-11-12T01:23:27;4.40;;;2.90;;
42598;SDS011;28225;42.714;23.860;2022-11-12T01:25:52;4.97;;;3.35;;
42598;SDS011;28225;42.714;23.860;2022-11-12T01:28:18;5.25;;;3.97;;
42598;SDS011;28225;42.714;23.860;2022-11-12T01:30:43;5.75;;;2.95;;
42598;SDS011;28225;42.714;23.860;2022-11-12T01:33:09;5.53;;;3.20;;
42598;SDS011;28225;42.714;23.860;2022-11-12T01:35:34;4.15;;;3.50;;
42598;SDS011;28225;42.714;23.860;2022-11-12T01:38:00;4.28;;;2.90;;
42598;SDS011;28225;42.714;23.860;2022-11-12T01:40:25;4.65;;;3.25;;
42598;SDS011;28225;42.714;23.860;2022-11-12T01:42:51;6.75;;;3.20;;
42598;SDS011;28225;42.714;23.860;2022-11-12T01:45:17;3.40;;;2.85;;
42598;SDS011;28225;42.714;23.860;2022-11-12T01:47:43;4.22;;;3.00;;
42598;SDS011;28225;42.714;23.860;2022-11-12T01:50:21;4.43;;;2.95;;
42598;SDS011;28225;42.714;23.860;2022-11-12T01:52:49;5.38;;;3.15;;
42598;SDS011;28225;42.714;23.860;2022-11-12T01:55:18;6.32;;;4.20;;
42598;SDS011;28225;42.714;23.860;2022-11-12T01:58:05;4.07;;;3.13;;
42598;SDS011;28225;42.714;23.860;2022-11-12T02:00:33;5.18;;;3.40;;
42598;SDS011;28225;42.714;23.860;2022-11-12T02:02:59;5.03;;;3.70;;
42598;SDS011;28225;42.714;23.860;2022-11-12T02:05:27;6.03;;;3.67;;
42598;SDS011;28225;42.714;23.860;2022-11-12T02:07:53;6.28;;;3.08;;
42598;SDS011;28225;42.714;23.860;2022-11-12T02:10:20;7.43;;;3.97;;
42598;SDS011;28225;42.714;23.860;2022-11-12T02:12:46;4.07;;;3.13;;
42598;SDS011;28225;42.714;23.860;2022-11-12T02:15:30;6.82;;;3.80;;
42598;SDS011;28225;42.714;23.860;2022-11-12T02:17:56;3.72;;;2.90;;
42598;SDS011;28225;42.714;23.860;2022-11-12T02:20:22;3.67;;;3.17;;
42598;SDS011;28225;42.714;23.860;2022-11-12T02:22:47;4.57;;;3.80;;
42598;SDS011;28225;42.714;23.860;2022-11-12T02:25:16;5.35;;;3.65;;
42598;SDS011;28225;42.714;23.860;2022-11-12T02:27:44;5.30;;;2.97;;
42598;SDS011;28225;42.714;23.860;2022-11-12T02:30:10;5.32;;;3.95;;
42598;SDS011;28225;42.714;23.860;2022-11-12T02:32:36;4.93;;;3.75;;
42598;SDS011;28225;42.714;23.860;2022-11-12T02:35:02;5.57;;;3.95;;
42598;SDS011;28225;42.714;23.860;2022-11-12T02:37:27;8.27;;;4.13;;
42598;SDS011;28225;42.714;23.860;2022-11-12T02:39:53;9.98;;;4.78;;
42598;SDS011;28225;42.714;23.860;2022-11-12T02:42:18;10.88;;;5.50;;
42598;SDS011;28225;42.714;23.860;2022-11-12T02:44:44;6.82;;;3.85;;
42598;SDS011;28225;42.714;23.860;2022-11-12T02:47:09;4.60;;;3.38;;
42598;SDS011;28225;42.714;23.860;2022-11-12T02:49:35;6.90;;;3.85;;
42598;SDS011;28225;42.714;23.860;2022-11-12T02:52:00;10.43;;;5.15;;
42598;SDS011;28225;42.714;23.860;2022-11-12T02:54:25;5.35;;;3.90;;
42598;SDS011;28225;42.714;23.860;2022-11-12T02:56:51;4.97;;;3.55;;
42598;SDS011;28225;42.714;23.860;2022-11-12T02:59:16;4.68;;;3.67;;
42598;SDS011;28225;42.714;23.860;2022-11-12T03:01:42;4.15;;;3.22;;
42598;SDS011;28225;42.714;23.860;2022-11-12T03:04:07;4.88;;;3.60;;
42598;SDS011;28225;42.714;23.860;2022-11-12T03:06:33;6.35;;;4.25;;
42598;SDS011;28225;42.714;23.860;2022-11-12T03:08:58;5.63;;;3.70;;
42598;SDS011;28225;42.714;23.860;2022-11-12T03:11:23;6.15;;;4.28;;
42598;SDS011;28225;42.714;23.860;2022-11-12T03:13:49;6.00;;;4.07;;
42598;SDS011;28225;42.714;23.860;2022-11-12T03:16:14;7.75;;;4.25;;
42598;SDS011;28225;42.714;23.860;2022-11-12T03:18:40;8.98;;;5.63;;
42598;SDS011;28225;42.714;23.860;2022-11-12T03:21:05;10.32;;;4.03;;
42598;SDS011;28225;42.714;23.860;2022-11-12T03:23:31;8.18;;;5.30;;
42598;SDS011;28225;42.714;23.860;2022-11-12T03:25:56;6.15;;;4.35;;
42598;SDS011;28225;42.714;23.860;2022-11-12T03:28:22;6.82;;;4.35;;
42598;SDS011;28225;42.714;23.860;2022-11-12T03:30:47;7.13;;;5.00;;
42598;SDS011;28225;42.714;23.860;2022-11-12T03:33:13;7.15;;;3.80;;
42598;SDS011;28225;42.714;23.860;2022-11-12T03:35:39;7.15;;;4.43;;
42598;SDS011;28225;42.714;23.860;2022-11-12T03:38:05;6.63;;;4.50;;
42598;SDS011;28225;42.714;23.860;2022-11-12T03:40:31;5.25;;;4.43;;
42598;SDS011;28225;42.714;23.860;2022-11-12T03:42:57;8.90;;;4.63;;
42598;SDS011;28225;42.714;23.860;2022-11-12T03:45:24;5.70;;;4.32;;
42598;SDS011;28225;42.714;23.860;2022-11-12T03:47:51;6.10;;;4.55;;
42598;SDS011;28225;42.714;23.860;2022-11-12T03:50:19;6.20;;;4.80;;
42598;SDS011;28225;42.714;23.860;2022-11-12T03:52:47;7.23;;;5.03;;
42598;SDS011;28225;42.714;23.860;2022-11-12T03:55:14;6.35;;;4.57;;
42598;SDS011;28225;42.714;23.860;2022-11-12T03:57:40;8.35;;;6.22;;
42598;SDS011;28225;42.714;23.860;2022-11-12T04:00:06;7.85;;;5.68;;
42598;SDS011;28225;42.714;23.860;2022-11-12T04:02:33;20.45;;;6.90;;
42598;SDS011;28225;42.714;23.860;2022-11-12T04:04:58;11.98;;;7.07;;
42598;SDS011;28225;42.714;23.860;2022-11-12T04:07:42;9.48;;;6.55;;
42598;SDS011;28225;42.714;23.860;2022-11-12T04:10:31;9.85;;;5.70;;
42598;SDS011;28225;42.714;23.860;2022-11-12T04:12:56;7.47;;;5.47;;
42598;SDS011;28225;42.714;23.860;2022-11-12T04:15:40;5.85;;;5.05;;
42598;SDS011;28225;42.714;23.860;2022-11-12T04:18:06;9.98;;;5.85;;
42598;SDS011;28225;42.714;23.860;2022-11-12T04:20:50;13.18;;;6.22;;
42598;SDS011;28225;42.714;23.860;2022-11-12T04:23:34;8.23;;;5.45;;
42598;SDS011;28225;42.714;23.860;2022-11-12T04:25:59;17.38;;;9.07;;
42598;SDS011;28225;42.714;23.860;2022-11-12T04:28:43;18.60;;;9.18;;
42598;SDS011;28225;42.714;23.860;2022-11-12T04:31:29;19.25;;;9.23;;
42598;SDS011;28225;42.714;23.860;2022-11-12T04:33:55;14.15;;;8.63;;
42598;SDS011;28225;42.714;23.860;2022-11-12T04:36:40;11.70;;;8.57;;
42598;SDS011;28225;42.714;23.860;2022-11-12T04:39:06;11.85;;;7.40;;
42598;SDS011;28225;42.714;23.860;2022-11-12T04:41:31;11.68;;;7.43;;
42598;SDS011;28225;42.714;23.860;2022-11-12T04:44:15;10.02;;;6.53;;
42598;SDS011;28225;42.714;23.860;2022-11-12T04:46:59;8.45;;;6.93;;
42598;SDS011;28225;42.714;23.860;2022-11-12T04:49:25;8.95;;;6.13;;
42598;SDS011;28225;42.714;23.860;2022-11-12T04:51:50;6.25;;;4.13;;
42598;SDS011;28225;42.714;23.860;2022-11-12T04:54:32;9.38;;;6.90;;
42598;SDS011;28225;42.714;23.860;2022-11-12T04:56:58;10.38;;;6.88;;
42598;SDS011;28225;42.714;23.860;2022-11-12T04:59:24;7.50;;;6.10;;
42598;SDS011;28225;42.714;23.860;2022-11-12T05:01:50;9.60;;;7.00;;
42598;SDS011;28225;42.714;23.860;2022-11-12T05:04:16;11.55;;;7.38;;
42598;SDS011;28225;42.714;23.860;2022-11-12T05:06:42;13.38;;;7.80;;
42598;SDS011;28225;42.714;23.860;2022-11-12T05:09:17;17.95;;;12.05;;
42598;SDS011;28225;42.714;23.860;2022-11-12T05:11:45;28.80;;;11.20;;
42598;SDS011;28225;42.714;23.860;2022-11-12T05:14:11;37.53;;;14.02;;
42598;SDS011;28225;42.714;23.860;2022-11-12T05:16:37;37.15;;;13.60;;
42598;SDS011;28225;42.714;23.860;2022-11-12T05:19:03;11.55;;;6.75;;
42598;SDS011;28225;42.714;23.860;2022-11-12T05:21:28;11.98;;;6.65;;
42598;SDS011;28225;42.714;23.860;2022-11-12T05:24:12;13.93;;;6.95;;
42598;SDS011;28225;42.714;23.860;2022-11-12T05:26:38;17.48;;;7.10;;
42598;SDS011;28225;42.714;23.860;2022-11-12T05:29:04;18.90;;;7.45;;
42598;SDS011;28225;42.714;23.860;2022-11-12T05:31:30;8.10;;;4.95;;
42598;SDS011;28225;42.714;23.860;2022-11-12T05:33:56;12.35;;;5.63;;
42598;SDS011;28225;42.714;23.860;2022-11-12T05:36:21;11.25;;;6.07;;
42598;SDS011;28225;42.714;23.860;2022-11-12T05:38:47;8.38;;;5.95;;
42598;SDS011;28225;42.714;23.860;2022-11-12T05:41:13;6.93;;;3.63;;
42598;SDS011;28225;42.714;23.860;2022-11-12T05:43:38;9.18;;;4.35;;
42598;SDS011;28225;42.714;23.860;2022-11-12T05:46:04;11.40;;;6.50;;
42598;SDS011;28225;42.714;23.860;2022-11-12T05:48:30;9.30;;;6.32;;
42598;SDS011;28225;42.714;23.860;2022-11-12T05:50:56;10.68;;;6.75;;
42598;SDS011;28225;42.714;23.860;2022-11-12T05:53:21;9.63;;;6.45;;
42598;SDS011;28225;42.714;23.860;2022-11-12T05:55:47;11.25;;;7.03;;
42598;SDS011;28225;42.714;23.860;2022-11-12T05:58:12;15.05;;;7.82;;
42598;SDS011;28225;42.714;23.860;2022-11-12T06:00:38;11.48;;;8.30;;
42598;SDS011;28225;42.714;23.860;2022-11-12T06:03:04;27.17;;;12.82;;
42598;SDS011;28225;42.714;23.860;2022-11-12T06:05:30;35.97;;;18.45;;
42598;SDS011;28225;42.714;23.860;2022-11-12T06:07:56;13.15;;;6.90;;
42598;SDS011;28225;42.714;23.860;2022-11-12T06:10:22;5.78;;;3.58;;
42598;SDS011;28225;42.714;23.860;2022-11-12T06:12:47;6.47;;;3.50;;
42598;SDS011;28225;42.714;23.860;2022-11-12T06:15:12;12.63;;;3.58;;
42598;SDS011;28225;42.714;23.860;2022-11-12T06:17:38;5.13;;;4.00;;
42598;SDS011;28225;42.714;23.860;2022-11-12T06:20:04;5.20;;;3.20;;
42598;SDS011;28225;42.714;23.860;2022-11-12T06:22:29;6.07;;;3.30;;
42598;SDS011;28225;42.714;23.860;2022-11-12T06:24:55;3.63;;;3.28;;
42598;SDS011;28225;42.714;23.860;2022-11-12T06:27:20;3.97;;;3.13;;
42598;SDS011;28225;42.714;23.860;2022-11-12T06:29:48;4.40;;;2.85;;
42598;SDS011;28225;42.714;23.860;2022-11-12T06:32:13;5.05;;;3.50;;
42598;SDS011;28225;42.714;23.860;2022-11-12T06:34:38;6.35;;;2.72;;
42598;SDS011;28225;42.714;23.860;2022-11-12T06:37:04;5.28;;;3.42;;
42598;SDS011;28225;42.714;23.860;2022-11-12T06:39:29;13.38;;;7.78;;
42598;SDS011;28225;42.714;23.860;2022-11-12T06:41:55;10.73;;;5.47;;
42598;SDS011;28225;42.714;23.860;2022-11-12T06:44:20;7.20;;;4.28;;
42598;SDS011;28225;42.714;23.860;2022-11-12T06:46:46;7.40;;;6.30;;
42598;SDS011;28225;42.714;23.860;2022-11-12T06:49:11;6.38;;;5.78;;
42598;SDS011;28225;42.714;23.860;2022-11-12T06:51:37;3.30;;;2.97;;
42598;SDS011;28225;42.714;23.860;2022-11-12T06:54:04;3.97;;;3.55;;
42598;SDS011;28225;42.714;23.860;2022-11-12T06:56:30;4.32;;;3.42;;
42598;SDS011;28225;42.714;23.860;2022-11-12T06:58:55;4.45;;;2.85;;
42598;SDS011;28225;42.714;23.860;2022-11-12T07:01:21;4.13;;;3.72;;
42598;SDS011;28225;42.714;23.860;2022-11-12T07:03:49;3.50;;;3.15;;
42598;SDS011;28225;42.714;23.860;2022-11-12T07:06:16;6.38;;;3.67;;
42598;SDS011;28225;42.714;23.860;2022-11-12T07:08:48;3.10;;;2.70;;
42598;SDS011;28225;42.714;23.860;2022-11-12T07:11:15;2.47;;;2.17;;
42598;SDS011;28225;42.714;23.860;2022-11-12T07:13:44;8.90;;;2.40;;
42598;SDS011;28225;42.714;23.860;2022-11-12T07:16:10;2.45;;;1.88;;
42598;SDS011;28225;42.714;23.860;2022-11-12T07:18:45;2.22;;;2.00;;
42598;SDS011;28225;42.714;23.860;2022-11-12T07:21:12;2.58;;;1.65;;
42598;SDS011;28225;42.714;23.860;2022-11-12T07:23:39;3.25;;;2.10;;
42598;SDS011;28225;42.714;23.860;2022-11-12T07:26:19;2.47;;;2.00;;
42598;SDS011;28225;42.714;23.860;2022-11-12T07:28:46;2.25;;;2.05;;
42598;SDS011;28225;42.714;23.860;2022-11-12T07:31:13;5.85;;;3.65;;
42598;SDS011;28225;42.714;23.860;2022-11-12T07:33:40;3.85;;;2.45;;
42598;SDS011;28225;42.714;23.860;2022-11-12T07:36:07;3.70;;;2.35;;
42598;SDS011;28225;42.714;23.860;2022-11-12T07:38:35;3.22;;;2.60;;
42598;SDS011;28225;42.714;23.860;2022-11-12T07:41:02;2.65;;;2.13;;
42598;SDS011;28225;42.714;23.860;2022-11-12T07:43:30;3.10;;;2.33;;
42598;SDS011;28225;42.714;23.860;2022-11-12T07:46:02;2.22;;;1.95;;
42598;SDS011;28225;42.714;23.860;2022-11-12T07:48:29;2.58;;;2.10;;
42598;SDS011;28225;42.714;23.860;2022-11-12T07:50:59;4.82;;;2.30;;
42598;SDS011;28225;42.714;23.860;2022-11-12T07:53:29;2.35;;;2.00;;
42598;SDS011;28225;42.714;23.860;2022-11-12T07:55:55;2.20;;;2.00;;
42598;SDS011;28225;42.714;23.860;2022-11-12T07:58:22;3.60;;;2.17;;
42598;SDS011;28225;42.714;23.860;2022-11-12T08:00:48;3.75;;;2.65;;
42598;SDS011;28225;42.714;23.860;2022-11-12T08:03:14;2.30;;;2.10;;
42598;SDS011;28225;42.714;23.860;2022-11-12T08:05:40;2.10;;;1.90;;
42598;SDS011;28225;42.714;23.860;2022-11-12T08:08:05;2.47;;;1.88;;
42598;SDS011;28225;42.714;23.860;2022-11-12T08:10:31;3.22;;;1.80;;
42598;SDS011;28225;42.714;23.860;2022-11-12T08:12:57;2.08;;;1.83;;
42598;SDS011;28225;42.714;23.860;2022-11-12T08:15:22;3.17;;;2.03;;
42598;SDS011;28225;42.714;23.860;2022-11-12T08:17:48;3.13;;;2.00;;
42598;SDS011;28225;42.714;23.860;2022-11-12T08:20:14;2.95;;;2.33;;
42598;SDS011;28225;42.714;23.860;2022-11-12T08:22:40;2.85;;;2.25;;
42598;SDS011;28225;42.714;23.860;2022-11-12T08:25:06;3.13;;;2.28;;
42598;SDS011;28225;42.714;23.860;2022-11-12T08:27:32;3.25;;;2.88;;
42598;SDS011;28225;42.714;23.860;2022-11-12T08:29:57;3.00;;;2.35;;
42598;SDS011;28225;42.714;23.860;2022-11-12T08:32:23;10.10;;;2.90;;
42598;SDS011;28225;42.714;23.860;2022-11-12T08:34:49;4.25;;;2.78;;
42598;SDS011;28225;42.714;23.860;2022-11-12T08:37:14;3.45;;;2.90;;
42598;SDS011;28225;42.714;23.860;2022-11-12T08:39:40;3.83;;;2.70;;
42598;SDS011;28225;42.714;23.860;2022-11-12T08:42:05;2.65;;;2.25;;
42598;SDS011;28225;42.714;23.860;2022-11-12T08:44:31;3.72;;;3.22;;
42598;SDS011;28225;42.714;23.860;2022-11-12T08:46:56;3.63;;;2.42;;
42598;SDS011;28225;42.714;23.860;2022-11-12T08:49:24;4.07;;;2.88;;
42598;SDS011;28225;42.714;23.860;2022-11-12T08:51:50;7.15;;;5.07;;
42598;SDS011;28225;42.714;23.860;2022-11-12T08:54:16;4.18;;;3.10;;
42598;SDS011;28225;42.714;23.860;2022-11-12T08:56:41;4.97;;;3.15;;
42598;SDS011;28225;42.714;23.860;2022-11-12T08:59:09;13.45;;;7.78;;
42598;SDS011;28225;42.714;23.860;2022-11-12T09:01:35;11.13;;;6.47;;
42598;SDS011;28225;42.714;23.860;2022-11-12T09:04:00;4.25;;;2.47;;
42598;SDS011;28225;42.714;23.860;2022-11-12T09:06:26;23.63;;;12.00;;
42598;SDS011;28225;42.714;23.860;2022-11-12T09:08:51;5.78;;;4.65;;
42598;SDS011;28225;42.714;23.860;2022-11-12T09:11:17;8.63;;;4.63;;
42598;SDS011;28225;42.714;23.860;2022-11-12T09:13:43;15.27;;;7.38;;
42598;SDS011;28225;42.714;23.860;2022-11-12T09:16:08;6.95;;;4.40;;
42598;SDS011;28225;42.714;23.860;2022-11-12T09:18:34;11.65;;;6.38;;
42598;SDS011;28225;42.714;23.860;2022-11-12T09:21:01;18.88;;;10.27;;
42598;SDS011;28225;42.714;23.860;2022-11-12T09:23:32;6.30;;;4.20;;
42598;SDS011;28225;42.714;23.860;2022-11-12T09:25:58;4.40;;;3.28;;
42598;SDS011;28225;42.714;23.860;2022-11-12T09:28:24;2.42;;;2.22;;
42598;SDS011;28225;42.714;23.860;2022-11-12T09:30:51;5.18;;;2.33;;
42598;SDS011;28225;42.714;23.860;2022-11-12T09:33:22;3.25;;;2.50;;
42598;SDS011;28225;42.714;23.860;2022-11-12T09:35:50;3.72;;;2.40;;
42598;SDS011;28225;42.714;23.860;2022-11-12T09:38:15;2.38;;;2.10;;
42598;SDS011;28225;42.714;23.860;2022-11-12T09:43:22;3.35;;;2.78;;
42598;SDS011;28225;42.714;23.860;2022-11-12T09:46:00;2.50;;;2.28;;
42598;SDS011;28225;42.714;23.860;2022-11-12T09:48:50;6.37;;;3.63;;
42598;SDS011;28225;42.714;23.860;2022-11-12T09:53:51;2.63;;;2.40;;
42598;SDS011;28225;42.714;23.860;2022-11-12T09:56:20;2.85;;;2.55;;
42598;SDS011;28225;42.714;23.860;2022-11-12T09:58:46;3.22;;;2.20;;
42598;SDS011;28225;42.714;23.860;2022-11-12T10:09:19;2.92;;;2.63;;
42598;SDS011;28225;42.714;23.860;2022-11-12T10:17:58;7.25;;;2.15;;
42598;SDS011;28225;42.714;23.860;2022-11-12T10:20:36;2.75;;;1.90;;
42598;SDS011;28225;42.714;23.860;2022-11-12T10:23:26;5.57;;;1.98;;
42598;SDS011;28225;42.714;23.860;2022-11-12T10:25:53;2.72;;;2.03;;
42598;SDS011;28225;42.714;23.860;2022-11-12T10:28:29;3.30;;;2.42;;
42598;SDS011;28225;42.714;23.860;2022-11-12T10:31:12;2.05;;;1.80;;
42598;SDS011;28225;42.714;23.860;2022-11-12T10:33:45;3.03;;;2.45;;
42598;SDS011;28225;42.714;23.860;2022-11-12T10:38:42;3.35;;;2.03;;
42598;SDS011;28225;42.714;23.860;2022-11-12T10:41:31;2.70;;;2.40;;
42598;SDS011;28225;42.714;23.860;2022-11-12T10:43:57;2.70;;;2.40;;
42598;SDS011;28225;42.714;23.860;2022-11-12T10:46:35;3.80;;;2.30;;
42598;SDS011;28225;42.714;23.860;2022-11-12T10:49:05;3.30;;;2.70;;
42598;SDS011;28225;42.714;23.860;2022-11-12T10:51:55;2.55;;;1.75;;
42598;SDS011;28225;42.714;23.860;2022-11-12T10:54:35;2.25;;;2.03;;
42598;SDS011;28225;42.714;23.860;2022-11-12T10:59:49;2.50;;;1.77;;
42598;SDS011;28225;42.714;23.860;2022-11-12T11:02:52;2.42;;;2.22;;
42598;SDS011;28225;42.714;23.860;2022-11-12T11:06:04;2.95;;;1.90;;
42598;SDS011;28225;42.714;23.860;2022-11-12T11:11:13;5.95;;;4.32;;
42598;SDS011;28225;42.714;23.860;2022-11-12T11:13:45;2.88;;;2.13;;
42598;SDS011;28225;42.714;23.860;2022-11-12T11:16:21;4.32;;;2.90;;
42598;SDS011;28225;42.714;23.860;2022-11-12T11:18:59;3.88;;;3.17;;
42598;SDS011;28225;42.714;23.860;2022-11-12T11:24:26;7.07;;;4.20;;
42598;SDS011;28225;42.714;23.860;2022-11-12T11:27:19;4.00;;;3.00;;
42598;SDS011;28225;42.714;23.860;2022-11-12T11:37:50;2.67;;;2.47;;
42598;SDS011;28225;42.714;23.860;2022-11-12T11:40:34;3.63;;;2.67;;
42598;SDS011;28225;42.714;23.860;2022-11-12T11:46:05;3.55;;;2.45;;
42598;SDS011;28225;42.714;23.860;2022-11-12T11:57:36;2.78;;;1.80;;
42598;SDS011;28225;42.714;23.860;2022-11-12T12:08:05;2.22;;;1.77;;
42598;SDS011;28225;42.714;23.860;2022-11-12T12:13:20;2.10;;;1.60;;
42598;SDS011;28225;42.714;23.860;2022-11-12T12:18:53;5.93;;;2.42;;
42598;SDS011;28225;42.714;23.860;2022-11-12T12:21:26;6.25;;;4.18;;
42598;SDS011;28225;42.714;23.860;2022-11-12T12:24:03;8.60;;;5.53;;
42598;SDS011;28225;42.714;23.860;2022-11-12T12:26:36;5.65;;;3.30;;
42598;SDS011;28225;42.714;23.860;2022-11-12T12:29:14;2.38;;;1.60;;
42598;SDS011;28225;42.714;23.860;2022-11-12T12:31:54;1.98;;;1.50;;
42598;SDS011;28225;42.714;23.860;2022-11-12T12:34:32;7.35;;;4.00;;
42598;SDS011;28225;42.714;23.860;2022-11-12T12:37:09;4.18;;;3.00;;
42598;SDS011;28225;42.714;23.860;2022-11-12T12:39:44;2.80;;;2.35;;
42598;SDS011;28225;42.714;23.860;2022-11-12T12:42:16;3.53;;;2.42;;
42598;SDS011;28225;42.714;23.860;2022-11-12T12:44:50;5.28;;;3.17;;
42598;SDS011;28225;42.714;23.860;2022-11-12T12:47:25;5.05;;;2.78;;
42598;SDS011;28225;42.714;23.860;2022-11-12T12:49:52;4.13;;;2.28;;
42598;SDS011;28225;42.714;23.860;2022-11-12T12:52:18;2.67;;;2.00;;
42598;SDS011;28225;42.714;23.860;2022-11-12T13:02:56;3.13;;;2.17;;
42598;SDS011;28225;42.714;23.860;2022-11-12T13:05:34;2.33;;;2.10;;
42598;SDS011;28225;42.714;23.860;2022-11-12T13:08:22;2.30;;;1.90;;
42598;SDS011;28225;42.714;23.860;2022-11-12T13:10:48;4.25;;;2.35;;
42598;SDS011;28225;42.714;23.860;2022-11-12T13:15:45;6.05;;;3.58;;
42598;SDS011;28225;42.714;23.860;2022-11-12T13:26:44;2.38;;;1.77;;
42598;SDS011;28225;42.714;23.860;2022-11-12T13:31:49;5.20;;;3.08;;
42598;SDS011;28225;42.714;23.860;2022-11-12T13:34:34;4.03;;;3.05;;
42598;SDS011;28225;42.714;23.860;2022-11-12T13:37:01;2.95;;;2.30;;
42598;SDS011;28225;42.714;23.860;2022-11-12T13:39:28;3.00;;;2.50;;
42598;SDS011;28225;42.714;23.860;2022-11-12T13:42:00;3.40;;;3.08;;
42598;SDS011;28225;42.714;23.860;2022-11-12T13:45:00;6.07;;;4.80;;
42598;SDS011;28225;42.714;23.860;2022-11-12T13:47:26;5.97;;;3.70;;
42598;SDS011;28225;42.714;23.860;2022-11-12T13:49:54;5.65;;;4.47;;
42598;SDS011;28225;42.714;23.860;2022-11-12T13:52:20;3.50;;;3.17;;
42598;SDS011;28225;42.714;23.860;2022-11-12T13:54:46;3.88;;;2.67;;
42598;SDS011;28225;42.714;23.860;2022-11-12T13:57:33;5.72;;;4.55;;
42598;SDS011;28225;42.714;23.860;2022-11-12T14:00:07;3.92;;;3.15;;
42598;SDS011;28225;42.714;23.860;2022-11-12T14:02:47;4.68;;;3.72;;
42598;SDS011;28225;42.714;23.860;2022-11-12T14:05:15;3.15;;;2.85;;
42598;SDS011;28225;42.714;23.860;2022-11-12T14:10:24;5.05;;;4.10;;
42598;SDS011;28225;42.714;23.860;2022-11-12T14:16:12;11.15;;;7.90;;
42598;SDS011;28225;42.714;23.860;2022-11-12T14:21:36;4.22;;;3.70;;
42598;SDS011;28225;42.714;23.860;2022-11-12T14:24:02;4.47;;;3.85;;
42598;SDS011;28225;42.714;23.860;2022-11-12T14:26:33;5.10;;;4.10;;
42598;SDS011;28225;42.714;23.860;2022-11-12T14:28:59;5.22;;;4.57;;
42598;SDS011;28225;42.714;23.860;2022-11-12T14:31:24;5.88;;;4.80;;
42598;SDS011;28225;42.714;23.860;2022-11-12T14:33:50;7.68;;;5.93;;
42598;SDS011;28225;42.714;23.860;2022-11-12T14:36:16;8.95;;;5.28;;
42598;SDS011;28225;42.714;23.860;2022-11-12T14:38:55;11.73;;;8.63;;
42598;SDS011;28225;42.714;23.860;2022-11-12T14:41:25;37.03;;;22.90;;
42598;SDS011;28225;42.714;23.860;2022-11-12T14:44:00;124.40;;;69.28;;
42598;SDS011;28225;42.714;23.860;2022-11-12T14:49:20;64.80;;;42.90;;
42598;SDS011;28225;42.714;23.860;2022-11-12T14:52:01;37.10;;;24.25;;
42598;SDS011;28225;42.714;23.860;2022-11-12T14:54:44;30.95;;;19.65;;
42598;SDS011;28225;42.714;23.860;2022-11-12T14:57:16;31.83;;;17.33;;
42598;SDS011;28225;42.714;23.860;2022-11-12T14:59:44;21.63;;;14.07;;
42598;SDS011;28225;42.714;23.860;2022-11-12T15:02:21;18.13;;;12.00;;
42598;SDS011;28225;42.714;23.860;2022-11-12T15:07:57;11.40;;;8.25;;
42598;SDS011;28225;42.714;23.860;2022-11-12T15:10:30;11.75;;;8.40;;
42598;SDS011;28225;42.714;23.860;2022-11-12T15:15:29;7.88;;;5.78;;
42598;SDS011;28225;42.714;23.860;2022-11-12T15:17:56;7.03;;;4.82;;
42598;SDS011;28225;42.714;23.860;2022-11-12T15:20:23;5.38;;;3.60;;
42598;SDS011;28225;42.714;23.860;2022-11-12T15:22:49;6.35;;;4.15;;
42598;SDS011;28225;42.714;23.860;2022-11-12T15:25:20;5.75;;;4.72;;
42598;SDS011;28225;42.714;23.860;2022-11-12T15:27:46;6.43;;;5.22;;
42598;SDS011;28225;42.714;23.860;2022-11-12T15:30:20;6.03;;;4.70;;
42598;SDS011;28225;42.714;23.860;2022-11-12T15:32:49;4.18;;;3.17;;
42598;SDS011;28225;42.714;23.860;2022-11-12T15:37:50;10.13;;;6.32;;
42598;SDS011;28225;42.714;23.860;2022-11-12T15:40:17;9.68;;;6.50;;
42598;SDS011;28225;42.714;23.860;2022-11-12T15:42:44;7.28;;;5.65;;
42598;SDS011;28225;42.714;23.860;2022-11-12T15:45:15;10.05;;;6.07;;
42598;SDS011;28225;42.714;23.860;2022-11-12T15:47:42;11.82;;;7.15;;
42598;SDS011;28225;42.714;23.860;2022-11-12T15:50:13;9.68;;;7.03;;
42598;SDS011;28225;42.714;23.860;2022-11-12T15:52:39;10.90;;;7.38;;
42598;SDS011;28225;42.714;23.860;2022-11-12T15:55:05;6.45;;;4.85;;
42598;SDS011;28225;42.714;23.860;2022-11-12T15:57:32;8.57;;;6.38;;
42598;SDS011;28225;42.714;23.860;2022-11-12T16:00:00;10.13;;;5.53;;
42598;SDS011;28225;42.714;23.860;2022-11-12T16:02:38;8.25;;;5.53;;
42598;SDS011;28225;42.714;23.860;2022-11-12T16:05:03;4.95;;;4.07;;
42598;SDS011;28225;42.714;23.860;2022-11-12T16:07:29;3.95;;;3.30;;
42598;SDS011;28225;42.714;23.860;2022-11-12T16:09:54;2.97;;;2.67;;
42598;SDS011;28225;42.714;23.860;2022-11-12T16:12:20;4.35;;;2.90;;
42598;SDS011;28225;42.714;23.860;2022-11-12T16:14:46;4.70;;;2.92;;
42598;SDS011;28225;42.714;23.860;2022-11-12T16:17:12;6.78;;;6.07;;
42598;SDS011;28225;42.714;23.860;2022-11-12T16:19:39;10.30;;;6.07;;
42598;SDS011;28225;42.714;23.860;2022-11-12T16:22:05;7.07;;;5.10;;
42598;SDS011;28225;42.714;23.860;2022-11-12T16:24:39;4.38;;;3.72;;
42598;SDS011;28225;42.714;23.860;2022-11-12T16:29:34;4.37;;;3.07;;